sensor_id;sensor_type;location;lat;lon;timestamp;pressure;altitude;pressure_sealevel;temperature;humidity
61014;BME280;46899;47.542;19.082;2022-09-14T00:01:50;99952.22;;;15.32;88.16
61014;BME280;46899;47.542;19.082;2022-09-14T00:04:52;99956.72;;;15.30;88.35
61014;BME280;46899;47.542;19.082;2022-09-14T00:07:55;99956.41;;;15.20;88.97
61014;BME280;46899;47.542;19.082;2022-09-14T00:10:58;99953.34;;;15.14;89.12
61014;BME280;46899;47.542;19.082;2022-09-14T00:14:04;99943.19;;;15.07;89.03
61014;BME280;46899;47.542;19.082;2022-09-14T00:17:07;99940.78;;;15.04;88.68
61014;BME280;46899;47.542;19.082;2022-09-14T00:20:10;99945.06;;;15.05;88.75
61014;BME280;46899;47.542;19.082;2022-09-14T00:23:12;99939.94;;;15.04;88.68
61014;BME280;46899;47.542;19.082;2022-09-14T00:26:16;99940.03;;;15.02;88.46
61014;BME280;46899;47.542;19.082;2022-09-14T00:29:19;99935.81;;;15.00;88.30
61014;BME280;46899;47.542;19.082;2022-09-14T00:32:21;99927.19;;;14.98;88.42
61014;BME280;46899;47.542;19.082;2022-09-14T00:35:24;99920.19;;;14.98;87.93
61014;BME280;46899;47.542;19.082;2022-09-14T00:38:26;99913.34;;;14.96;88.11
61014;BME280;46899;47.542;19.082;2022-09-14T00:41:31;99924.56;;;14.98;87.38
61014;BME280;46899;47.542;19.082;2022-09-14T00:47:36;99925.87;;;15.05;86.59
61014;BME280;46899;47.542;19.082;2022-09-14T00:50:38;99928.59;;;15.03;86.39
61014;BME280;46899;47.542;19.082;2022-09-14T00:53:41;99926.09;;;15.02;85.94
61014;BME280;46899;47.542;19.082;2022-09-14T00:56:44;99923.53;;;15.00;85.82
61014;BME280;46899;47.542;19.082;2022-09-14T00:59:48;99927.69;;;15.04;85.53
61014;BME280;46899;47.542;19.082;2022-09-14T01:02:51;99920.84;;;15.16;84.87
61014;BME280;46899;47.542;19.082;2022-09-14T01:18:37;99916.50;;;14.87;87.09
61014;BME280;46899;47.542;19.082;2022-09-14T01:21:39;99915.19;;;14.80;87.33
61014;BME280;46899;47.542;19.082;2022-09-14T01:24:53;99912.84;;;14.75;87.88
61014;BME280;46899;47.542;19.082;2022-09-14T01:27:58;99910.66;;;14.68;87.67
61014;BME280;46899;47.542;19.082;2022-09-14T01:31:05;99908.16;;;14.66;87.50
61014;BME280;46899;47.542;19.082;2022-09-14T01:37:26;99899.53;;;14.64;87.22
61014;BME280;46899;47.542;19.082;2022-09-14T01:40:41;99899.72;;;14.61;87.45
61014;BME280;46899;47.542;19.082;2022-09-14T01:43:46;99894.91;;;14.54;88.58
61014;BME280;46899;47.542;19.082;2022-09-14T01:46:52;99900.44;;;14.49;88.82
61014;BME280;46899;47.542;19.082;2022-09-14T01:50:00;99900.34;;;14.51;88.25
61014;BME280;46899;47.542;19.082;2022-09-14T01:53:07;99899.19;;;14.41;89.52
61014;BME280;46899;47.542;19.082;2022-09-14T01:59:23;99881.47;;;14.30;90.53
61014;BME280;46899;47.542;19.082;2022-09-14T02:02:28;99887.69;;;14.27;90.76
61014;BME280;46899;47.542;19.082;2022-09-14T02:05:42;99865.94;;;14.27;90.92
61014;BME280;46899;47.542;19.082;2022-09-14T02:08:45;99867.78;;;14.25;90.63
61014;BME280;46899;47.542;19.082;2022-09-14T02:11:48;99868.03;;;14.20;90.71
61014;BME280;46899;47.542;19.082;2022-09-14T02:14:51;99868.16;;;14.19;90.80
61014;BME280;46899;47.542;19.082;2022-09-14T02:17:54;99865.69;;;14.16;90.88
61014;BME280;46899;47.542;19.082;2022-09-14T02:20:58;99853.56;;;14.15;91.14
61014;BME280;46899;47.542;19.082;2022-09-14T02:24:01;99861.41;;;14.15;91.34
61014;BME280;46899;47.542;19.082;2022-09-14T02:27:05;99854.31;;;14.17;90.74
61014;BME280;46899;47.542;19.082;2022-09-14T02:30:08;99854.31;;;14.17;90.35
61014;BME280;46899;47.542;19.082;2022-09-14T02:33:15;99846.72;;;14.12;90.67
61014;BME280;46899;47.542;19.082;2022-09-14T02:36:27;99840.66;;;14.12;90.46
61014;BME280;46899;47.542;19.082;2022-09-14T02:39:34;99840.00;;;14.08;91.46
61014;BME280;46899;47.542;19.082;2022-09-14T02:49:19;99832.84;;;13.96;92.11
61014;BME280;46899;47.542;19.082;2022-09-14T02:52:47;99822.66;;;13.92;92.45
61014;BME280;46899;47.542;19.082;2022-09-14T02:55:50;99829.72;;;13.90;93.39
61014;BME280;46899;47.542;19.082;2022-09-14T02:58:53;99838.50;;;13.89;94.61
61014;BME280;46899;47.542;19.082;2022-09-14T03:01:56;99836.16;;;13.84;94.78
61014;BME280;46899;47.542;19.082;2022-09-14T03:04:59;99837.31;;;13.79;95.06
61014;BME280;46899;47.542;19.082;2022-09-14T03:08:02;99824.84;;;13.84;95.22
61014;BME280;46899;47.542;19.082;2022-09-14T03:11:05;99825.44;;;13.89;95.64
61014;BME280;46899;47.542;19.082;2022-09-14T03:14:08;99820.78;;;13.94;96.18
61014;BME280;46899;47.542;19.082;2022-09-14T03:17:11;99824.72;;;14.01;95.60
61014;BME280;46899;47.542;19.082;2022-09-14T03:20:15;99819.88;;;14.09;94.87
61014;BME280;46899;47.542;19.082;2022-09-14T03:23:17;99817.50;;;14.20;94.71
61014;BME280;46899;47.542;19.082;2022-09-14T03:26:21;99820.78;;;14.23;94.34
61014;BME280;46899;47.542;19.082;2022-09-14T03:29:24;99821.34;;;14.28;93.99
61014;BME280;46899;47.542;19.082;2022-09-14T03:32:27;99816.78;;;14.32;93.57
61014;BME280;46899;47.542;19.082;2022-09-14T03:35:29;99821.69;;;14.38;93.06
61014;BME280;46899;47.542;19.082;2022-09-14T03:38:32;99816.19;;;14.43;92.74
61014;BME280;46899;47.542;19.082;2022-09-14T03:41:35;99805.25;;;14.50;92.11
61014;BME280;46899;47.542;19.082;2022-09-14T03:44:37;99803.09;;;14.57;90.61
61014;BME280;46899;47.542;19.082;2022-09-14T03:47:40;99808.25;;;14.58;90.14
61014;BME280;46899;47.542;19.082;2022-09-14T03:50:42;99809.94;;;14.59;89.85
61014;BME280;46899;47.542;19.082;2022-09-14T03:53:45;99812.38;;;14.62;89.96
61014;BME280;46899;47.542;19.082;2022-09-14T03:56:50;99814.72;;;14.67;89.29
61014;BME280;46899;47.542;19.082;2022-09-14T03:59:52;99819.00;;;14.68;89.02
61014;BME280;46899;47.542;19.082;2022-09-14T04:02:55;99816.66;;;14.63;89.27
61014;BME280;46899;47.542;19.082;2022-09-14T04:05:57;99827.31;;;14.60;90.16
61014;BME280;46899;47.542;19.082;2022-09-14T04:09:00;99819.09;;;14.52;90.84
61014;BME280;46899;47.542;19.082;2022-09-14T04:12:03;99814.41;;;14.43;91.50
61014;BME280;46899;47.542;19.082;2022-09-14T04:15:05;99822.19;;;14.29;92.09
61014;BME280;46899;47.542;19.082;2022-09-14T04:18:08;99816.13;;;14.28;92.73
61014;BME280;46899;47.542;19.082;2022-09-14T04:21:17;99813.94;;;14.21;93.22
61014;BME280;46899;47.542;19.082;2022-09-14T04:24:20;99803.41;;;14.22;92.50
61014;BME280;46899;47.542;19.082;2022-09-14T04:27:26;99779.00;;;14.22;92.51
61014;BME280;46899;47.542;19.082;2022-09-14T04:30:29;99780.66;;;14.23;91.41
61014;BME280;46899;47.542;19.082;2022-09-14T04:33:32;99780.59;;;14.24;91.09
61014;BME280;46899;47.542;19.082;2022-09-14T04:36:35;99770.94;;;14.25;90.45
61014;BME280;46899;47.542;19.082;2022-09-14T04:39:37;99771.16;;;14.22;90.48
61014;BME280;46899;47.542;19.082;2022-09-14T04:42:40;99780.66;;;14.23;91.19
61014;BME280;46899;47.542;19.082;2022-09-14T04:45:42;99788.63;;;14.21;91.82
61014;BME280;46899;47.542;19.082;2022-09-14T04:48:45;99783.09;;;14.12;92.84
61014;BME280;46899;47.542;19.082;2022-09-14T04:51:47;99778.22;;;14.06;92.56
61014;BME280;46899;47.542;19.082;2022-09-14T04:54:50;99788.16;;;14.15;92.12
61014;BME280;46899;47.542;19.082;2022-09-14T04:57:52;99772.66;;;14.26;91.08
61014;BME280;46899;47.542;19.082;2022-09-14T05:01:05;99767.94;;;14.47;88.09
61014;BME280;46899;47.542;19.082;2022-09-14T05:04:08;99765.44;;;14.73;85.92
61014;BME280;46899;47.542;19.082;2022-09-14T05:07:11;99757.94;;;14.95;84.06
61014;BME280;46899;47.542;19.082;2022-09-14T05:10:14;99770.06;;;15.11;82.94
61014;BME280;46899;47.542;19.082;2022-09-14T05:13:16;99772.84;;;15.22;82.54
61014;BME280;46899;47.542;19.082;2022-09-14T05:16:19;99775.53;;;15.34;82.09
61014;BME280;46899;47.542;19.082;2022-09-14T05:19:23;99780.78;;;15.34;81.33
61014;BME280;46899;47.542;19.082;2022-09-14T05:22:25;99790.78;;;15.42;79.93
61014;BME280;46899;47.542;19.082;2022-09-14T05:25:28;99794.06;;;15.45;80.31
61014;BME280;46899;47.542;19.082;2022-09-14T05:28:31;99795.06;;;15.43;80.75
61014;BME280;46899;47.542;19.082;2022-09-14T05:31:34;99790.78;;;15.42;80.37
61014;BME280;46899;47.542;19.082;2022-09-14T05:34:37;99790.91;;;15.54;79.91
61014;BME280;46899;47.542;19.082;2022-09-14T05:37:39;99783.50;;;15.73;79.42
61014;BME280;46899;47.542;19.082;2022-09-14T05:40:41;99771.66;;;15.81;78.80
61014;BME280;46899;47.542;19.082;2022-09-14T05:43:44;99748.28;;;15.90;78.25
61014;BME280;46899;47.542;19.082;2022-09-14T05:46:47;99744.53;;;15.94;77.82
61014;BME280;46899;47.542;19.082;2022-09-14T05:49:49;99753.06;;;16.10;77.61
61014;BME280;46899;47.542;19.082;2022-09-14T05:52:52;99758.53;;;16.32;75.43
61014;BME280;46899;47.542;19.082;2022-09-14T05:56:29;99761.91;;;16.47;74.51
61014;BME280;46899;47.542;19.082;2022-09-14T05:59:24;99772.66;;;16.57;73.67
61014;BME280;46899;47.542;19.082;2022-09-14T06:02:27;99772.16;;;17.00;72.20
61014;BME280;46899;47.542;19.082;2022-09-14T06:05:29;99779.84;;;17.03;72.26
61014;BME280;46899;47.542;19.082;2022-09-14T06:08:32;99781.22;;;17.09;72.59
61014;BME280;46899;47.542;19.082;2022-09-14T06:11:35;99794.87;;;17.14;72.85
61014;BME280;46899;47.542;19.082;2022-09-14T06:14:38;99790.00;;;17.33;72.93
61014;BME280;46899;47.542;19.082;2022-09-14T06:17:42;99783.22;;;17.54;71.90
61014;BME280;46899;47.542;19.082;2022-09-14T06:20:50;99771.94;;;17.52;70.89
61014;BME280;46899;47.542;19.082;2022-09-14T06:23:53;99764.63;;;17.68;69.98
61014;BME280;46899;47.542;19.082;2022-09-14T06:26:56;99764.87;;;18.00;69.22
61014;BME280;46899;47.542;19.082;2022-09-14T06:29:59;99774.38;;;18.60;66.86
61014;BME280;46899;47.542;19.082;2022-09-14T06:33:03;99775.94;;;18.73;63.91
61014;BME280;46899;47.542;19.082;2022-09-14T06:36:07;99771.66;;;18.83;64.36
61014;BME280;46899;47.542;19.082;2022-09-14T06:39:13;99760.94;;;18.52;64.81
61014;BME280;46899;47.542;19.082;2022-09-14T06:42:16;99772.50;;;18.38;66.38
61014;BME280;46899;47.542;19.082;2022-09-14T06:45:19;99773.22;;;18.29;66.60
61014;BME280;46899;47.542;19.082;2022-09-14T06:48:22;99779.44;;;18.28;67.37
61014;BME280;46899;47.542;19.082;2022-09-14T06:51:31;99799.06;;;18.24;67.79
61014;BME280;46899;47.542;19.082;2022-09-14T06:54:35;99798.19;;;18.12;68.62
61014;BME280;46899;47.542;19.082;2022-09-14T06:57:37;99792.72;;;17.92;68.45
61014;BME280;46899;47.542;19.082;2022-09-14T07:00:44;99786.47;;;17.82;70.56
61014;BME280;46899;47.542;19.082;2022-09-14T07:03:46;99788.88;;;17.48;75.21
61014;BME280;46899;47.542;19.082;2022-09-14T07:06:49;99781.81;;;17.12;79.98
61014;BME280;46899;47.542;19.082;2022-09-14T07:09:52;99770.75;;;16.84;81.96
61014;BME280;46899;47.542;19.082;2022-09-14T07:12:54;99774.13;;;16.61;85.30
61014;BME280;46899;47.542;19.082;2022-09-14T07:15:57;99766.09;;;16.50;90.07
61014;BME280;46899;47.542;19.082;2022-09-14T07:19:01;99771.87;;;16.29;94.03
61014;BME280;46899;47.542;19.082;2022-09-14T07:22:03;99779.97;;;16.26;93.84
61014;BME280;46899;47.542;19.082;2022-09-14T07:25:06;99790.25;;;16.42;93.37
61014;BME280;46899;47.542;19.082;2022-09-14T07:28:09;99772.53;;;16.71;94.07
61014;BME280;46899;47.542;19.082;2022-09-14T07:31:18;99777.38;;;16.77;92.26
61014;BME280;46899;47.542;19.082;2022-09-14T07:34:22;99795.44;;;16.69;95.34
61014;BME280;46899;47.542;19.082;2022-09-14T07:37:26;99784.94;;;16.69;95.26
61014;BME280;46899;47.542;19.082;2022-09-14T07:40:29;99775.38;;;16.80;94.62
61014;BME280;46899;47.542;19.082;2022-09-14T07:43:33;99764.84;;;16.93;93.58
61014;BME280;46899;47.542;19.082;2022-09-14T07:46:41;99776.38;;;17.03;92.37
61014;BME280;46899;47.542;19.082;2022-09-14T07:49:44;99770.38;;;17.14;95.13
61014;BME280;46899;47.542;19.082;2022-09-14T07:52:50;99775.50;;;17.15;87.89
61014;BME280;46899;47.542;19.082;2022-09-14T07:55:53;99780.81;;;17.39;86.64
61014;BME280;46899;47.542;19.082;2022-09-14T07:58:56;99772.69;;;17.54;89.37
61014;BME280;46899;47.542;19.082;2022-09-14T08:02:19;99767.84;;;17.48;88.79
61014;BME280;46899;47.542;19.082;2022-09-14T08:05:24;99776.28;;;17.53;85.11
61014;BME280;46899;47.542;19.082;2022-09-14T08:08:30;99775.38;;;17.65;88.59
61014;BME280;46899;47.542;19.082;2022-09-14T08:11:33;99766.13;;;17.84;85.37
61014;BME280;46899;47.542;19.082;2022-09-14T08:14:36;99757.66;;;17.91;85.60
61014;BME280;46899;47.542;19.082;2022-09-14T08:17:38;99752.78;;;17.98;83.90
61014;BME280;46899;47.542;19.082;2022-09-14T08:20:40;99740.63;;;18.19;83.25
61014;BME280;46899;47.542;19.082;2022-09-14T08:23:43;99732.00;;;18.06;83.80
61014;BME280;46899;47.542;19.082;2022-09-14T08:26:45;99738.78;;;17.73;84.59
61014;BME280;46899;47.542;19.082;2022-09-14T08:29:48;99751.53;;;17.80;86.85
61014;BME280;46899;47.542;19.082;2022-09-14T08:32:50;99745.59;;;18.00;86.41
61014;BME280;46899;47.542;19.082;2022-09-14T08:35:52;99740.53;;;18.20;84.17
61014;BME280;46899;47.542;19.082;2022-09-14T08:38:59;99745.09;;;18.40;85.10
61014;BME280;46899;47.542;19.082;2022-09-14T08:42:01;99743.25;;;18.76;81.46
61014;BME280;46899;47.542;19.082;2022-09-14T08:45:07;99735.31;;;19.09;80.27
61014;BME280;46899;47.542;19.082;2022-09-14T08:48:26;99722.97;;;19.09;75.33
61014;BME280;46899;47.542;19.082;2022-09-14T08:51:30;99730.28;;;19.60;77.77
61014;BME280;46899;47.542;19.082;2022-09-14T08:54:32;99715.50;;;20.10;73.42
61014;BME280;46899;47.542;19.082;2022-09-14T08:57:45;99722.38;;;20.33;72.93
61014;BME280;46899;47.542;19.082;2022-09-14T09:07:03;99736.41;;;20.94;69.06
61014;BME280;46899;47.542;19.082;2022-09-14T09:10:07;99729.91;;;20.98;67.50
61014;BME280;46899;47.542;19.082;2022-09-14T09:13:18;99730.97;;;21.16;67.33
61014;BME280;46899;47.542;19.082;2022-09-14T09:16:22;99736.44;;;21.03;68.62
61014;BME280;46899;47.542;19.082;2022-09-14T09:19:37;99725.84;;;20.94;69.07
61014;BME280;46899;47.542;19.082;2022-09-14T09:22:44;99725.31;;;21.49;67.48
61014;BME280;46899;47.542;19.082;2022-09-14T09:28:56;99749.44;;;22.23;63.28
61014;BME280;46899;47.542;19.082;2022-09-14T09:31:59;99748.63;;;22.59;62.93
61014;BME280;46899;47.542;19.082;2022-09-14T09:35:03;99756.94;;;22.46;61.92
61014;BME280;46899;47.542;19.082;2022-09-14T09:38:12;99763.19;;;22.65;61.61
61014;BME280;46899;47.542;19.082;2022-09-14T09:41:19;99771.41;;;22.71;61.37
61014;BME280;46899;47.542;19.082;2022-09-14T09:44:23;99775.41;;;22.75;62.16
61014;BME280;46899;47.542;19.082;2022-09-14T09:47:33;99781.94;;;22.15;63.28
61014;BME280;46899;47.542;19.082;2022-09-14T09:50:35;99774.38;;;21.82;63.94
61014;BME280;46899;47.542;19.082;2022-09-14T09:53:48;99773.72;;;22.09;64.54
61014;BME280;46899;47.542;19.082;2022-09-14T09:56:53;99770.91;;;22.20;64.11
61014;BME280;46899;47.542;19.082;2022-09-14T10:00:30;99764.37;;;21.76;65.64
61014;BME280;46899;47.542;19.082;2022-09-14T10:03:30;99770.47;;;21.67;66.43
61014;BME280;46899;47.542;19.082;2022-09-14T10:06:39;99771.63;;;22.03;65.39
61014;BME280;46899;47.542;19.082;2022-09-14T10:09:42;99776.62;;;22.25;64.29
61014;BME280;46899;47.542;19.082;2022-09-14T10:12:46;99767.25;;;22.30;64.75
61014;BME280;46899;47.542;19.082;2022-09-14T10:15:49;99764.16;;;23.00;62.55
61014;BME280;46899;47.542;19.082;2022-09-14T10:18:52;99777.75;;;23.52;59.19
61014;BME280;46899;47.542;19.082;2022-09-14T10:22:03;99780.78;;;23.57;58.23
61014;BME280;46899;47.542;19.082;2022-09-14T10:28:20;99761.75;;;23.97;57.89
61014;BME280;46899;47.542;19.082;2022-09-14T10:31:24;99762.66;;;24.23;56.96
61014;BME280;46899;47.542;19.082;2022-09-14T10:34:30;99760.06;;;23.96;56.90
61014;BME280;46899;47.542;19.082;2022-09-14T10:37:37;99748.06;;;24.27;56.51
61014;BME280;46899;47.542;19.082;2022-09-14T10:40:42;99742.81;;;24.35;56.70
61014;BME280;46899;47.542;19.082;2022-09-14T10:53:31;99739.56;;;23.35;61.00
61014;BME280;46899;47.542;19.082;2022-09-14T10:56:51;99744.81;;;23.45;61.57
61014;BME280;46899;47.542;19.082;2022-09-14T11:03:20;99745.72;;;23.89;58.93
61014;BME280;46899;47.542;19.082;2022-09-14T11:09:47;99735.41;;;23.68;61.14
61014;BME280;46899;47.542;19.082;2022-09-14T11:16:17;99741.37;;;23.70;61.14
61014;BME280;46899;47.542;19.082;2022-09-14T11:19:35;99733.63;;;23.76;61.34
61014;BME280;46899;47.542;19.082;2022-09-14T11:26:02;99717.69;;;23.94;61.47
61014;BME280;46899;47.542;19.082;2022-09-14T11:32:18;99733.25;;;23.89;61.60
61014;BME280;46899;47.542;19.082;2022-09-14T11:35:24;99719.22;;;23.97;62.71
61014;BME280;46899;47.542;19.082;2022-09-14T11:38:34;99721.88;;;23.79;62.23
61014;BME280;46899;47.542;19.082;2022-09-14T11:44:42;99708.06;;;23.13;64.71
61014;BME280;46899;47.542;19.082;2022-09-14T11:47:52;99700.25;;;23.11;65.96
61014;BME280;46899;47.542;19.082;2022-09-14T11:51:35;99705.28;;;23.14;66.49
61014;BME280;46899;47.542;19.082;2022-09-14T11:54:27;99696.87;;;23.19;66.14
61014;BME280;46899;47.542;19.082;2022-09-14T11:57:30;99691.22;;;23.49;64.02
61014;BME280;46899;47.542;19.082;2022-09-14T12:00:41;99694.78;;;23.58;65.63
61014;BME280;46899;47.542;19.082;2022-09-14T12:03:46;99697.59;;;23.56;64.64
61014;BME280;46899;47.542;19.082;2022-09-14T12:06:53;99696.84;;;23.64;64.84
61014;BME280;46899;47.542;19.082;2022-09-14T12:10:03;99696.91;;;23.72;64.46
61014;BME280;46899;47.542;19.082;2022-09-14T12:13:18;99694.53;;;23.87;64.01
61014;BME280;46899;47.542;19.082;2022-09-14T12:16:21;99686.69;;;24.03;64.69
61014;BME280;46899;47.542;19.082;2022-09-14T12:19:25;99684.41;;;24.25;63.71
61014;BME280;46899;47.542;19.082;2022-09-14T12:22:32;99685.81;;;24.37;63.19
61014;BME280;46899;47.542;19.082;2022-09-14T12:25:35;99675.66;;;24.41;63.09
61014;BME280;46899;47.542;19.082;2022-09-14T12:44:37;99657.91;;;24.16;63.25
61014;BME280;46899;47.542;19.082;2022-09-14T12:47:47;99651.56;;;24.42;63.01
61014;BME280;46899;47.542;19.082;2022-09-14T12:50:51;99642.78;;;24.42;62.41
61014;BME280;46899;47.542;19.082;2022-09-14T12:57:06;99642.53;;;24.61;62.94
61014;BME280;46899;47.542;19.082;2022-09-14T13:00:15;99634.16;;;24.48;61.67
61014;BME280;46899;47.542;19.082;2022-09-14T13:03:30;99626.44;;;24.37;63.40
61014;BME280;46899;47.542;19.082;2022-09-14T13:06:41;99610.66;;;24.10;63.49
61014;BME280;46899;47.542;19.082;2022-09-14T13:09:45;99607.97;;;23.84;63.89
61014;BME280;46899;47.542;19.082;2022-09-14T13:12:48;99604.84;;;23.89;64.35
61014;BME280;46899;47.542;19.082;2022-09-14T13:15:52;99606.28;;;24.26;62.86
61014;BME280;46899;47.542;19.082;2022-09-14T13:19:00;99604.25;;;24.54;61.66
61014;BME280;46899;47.542;19.082;2022-09-14T13:22:15;99606.56;;;24.49;61.70
61014;BME280;46899;47.542;19.082;2022-09-14T13:25:32;99602.03;;;24.08;65.36
61014;BME280;46899;47.542;19.082;2022-09-14T13:28:35;99606.34;;;24.09;64.74
61014;BME280;46899;47.542;19.082;2022-09-14T13:31:38;99610.75;;;24.00;64.09
61014;BME280;46899;47.542;19.082;2022-09-14T13:34:41;99603.03;;;24.07;63.51
61014;BME280;46899;47.542;19.082;2022-09-14T13:37:44;99606.94;;;24.03;63.60
61014;BME280;46899;47.542;19.082;2022-09-14T13:40:50;99611.09;;;24.31;63.59
61014;BME280;46899;47.542;19.082;2022-09-14T13:43:54;99616.53;;;24.21;64.00
61014;BME280;46899;47.542;19.082;2022-09-14T13:46:58;99609.47;;;24.04;64.46
61014;BME280;46899;47.542;19.082;2022-09-14T13:50:02;99610.53;;;24.11;63.86
61014;BME280;46899;47.542;19.082;2022-09-14T13:53:34;99606.94;;;24.28;63.63
61014;BME280;46899;47.542;19.082;2022-09-14T13:56:31;99608.78;;;24.28;63.30
61014;BME280;46899;47.542;19.082;2022-09-14T13:59:34;99603.63;;;24.26;63.41
61014;BME280;46899;47.542;19.082;2022-09-14T14:02:36;99596.94;;;24.22;65.28
61014;BME280;46899;47.542;19.082;2022-09-14T14:05:47;99596.41;;;24.44;63.72
61014;BME280;46899;47.542;19.082;2022-09-14T14:08:57;99596.72;;;24.83;61.18
61014;BME280;46899;47.542;19.082;2022-09-14T14:12:00;99595.41;;;24.95;61.82
61014;BME280;46899;47.542;19.082;2022-09-14T14:15:34;99590.37;;;24.76;61.37
61014;BME280;46899;47.542;19.082;2022-09-14T14:18:29;99580.50;;;24.69;61.13
61014;BME280;46899;47.542;19.082;2022-09-14T14:21:32;99564.34;;;24.54;61.82
61014;BME280;46899;47.542;19.082;2022-09-14T14:24:35;99570.81;;;24.52;61.84
61014;BME280;46899;47.542;19.082;2022-09-14T14:27:59;99574.47;;;24.51;63.02
61014;BME280;46899;47.542;19.082;2022-09-14T14:31:02;99571.44;;;24.45;64.28
61014;BME280;46899;47.542;19.082;2022-09-14T14:34:15;99573.38;;;24.27;64.01
61014;BME280;46899;47.542;19.082;2022-09-14T14:37:19;99561.28;;;24.33;64.62
61014;BME280;46899;47.542;19.082;2022-09-14T14:40:21;99547.75;;;24.26;65.51
61014;BME280;46899;47.542;19.082;2022-09-14T14:43:24;99547.75;;;24.18;66.25
61014;BME280;46899;47.542;19.082;2022-09-14T14:46:28;99553.38;;;24.15;64.89
61014;BME280;46899;47.542;19.082;2022-09-14T14:49:31;99544.34;;;24.50;63.33
61014;BME280;46899;47.542;19.082;2022-09-14T14:52:34;99543.97;;;24.79;61.32
61014;BME280;46899;47.542;19.082;2022-09-14T14:55:36;99530.34;;;24.82;61.95
61014;BME280;46899;47.542;19.082;2022-09-14T14:58:42;99533.44;;;24.61;62.14
61014;BME280;46899;47.542;19.082;2022-09-14T15:01:47;99538.63;;;24.29;63.75
61014;BME280;46899;47.542;19.082;2022-09-14T15:04:49;99546.63;;;23.95;65.40
61014;BME280;46899;47.542;19.082;2022-09-14T15:07:52;99540.59;;;23.67;67.94
61014;BME280;46899;47.542;19.082;2022-09-14T15:10:56;99538.50;;;23.45;68.38
61014;BME280;46899;47.542;19.082;2022-09-14T15:13:58;99529.47;;;23.38;68.43
61014;BME280;46899;47.542;19.082;2022-09-14T15:17:01;99518.53;;;23.24;69.39
61014;BME280;46899;47.542;19.082;2022-09-14T15:20:04;99518.78;;;23.12;69.77
61014;BME280;46899;47.542;19.082;2022-09-14T15:23:08;99510.94;;;23.29;69.87
61014;BME280;46899;47.542;19.082;2022-09-14T15:26:11;99505.78;;;23.45;69.52
61014;BME280;46899;47.542;19.082;2022-09-14T15:29:13;99502.81;;;23.48;68.19
61014;BME280;46899;47.542;19.082;2022-09-14T15:32:19;99498.22;;;23.58;67.32
61014;BME280;46899;47.542;19.082;2022-09-14T15:35:21;99496.13;;;23.69;66.82
61014;BME280;46899;47.542;19.082;2022-09-14T15:38:24;99490.78;;;23.61;68.11
61014;BME280;46899;47.542;19.082;2022-09-14T15:41:26;99484.22;;;23.48;68.70
61014;BME280;46899;47.542;19.082;2022-09-14T15:44:29;99486.81;;;23.40;68.32
61014;BME280;46899;47.542;19.082;2022-09-14T15:47:32;99477.09;;;23.31;69.64
61014;BME280;46899;47.542;19.082;2022-09-14T15:50:41;99471.41;;;23.26;70.08
61014;BME280;46899;47.542;19.082;2022-09-14T15:53:44;99458.72;;;23.11;70.52
61014;BME280;46899;47.542;19.082;2022-09-14T15:56:48;99467.97;;;23.07;71.63
61014;BME280;46899;47.542;19.082;2022-09-14T15:59:52;99465.31;;;23.07;70.56
61014;BME280;46899;47.542;19.082;2022-09-14T16:02:55;99475.19;;;22.97;72.40
61014;BME280;46899;47.542;19.082;2022-09-14T16:05:58;99488.38;;;22.89;71.91
61014;BME280;46899;47.542;19.082;2022-09-14T16:09:01;99483.69;;;22.83;72.81
61014;BME280;46899;47.542;19.082;2022-09-14T16:12:05;99488.22;;;22.73;73.23
61014;BME280;46899;47.542;19.082;2022-09-14T16:15:07;99504.16;;;22.73;73.19
61014;BME280;46899;47.542;19.082;2022-09-14T16:18:10;99516.59;;;22.73;72.89
61014;BME280;46899;47.542;19.082;2022-09-14T16:21:18;99510.12;;;22.75;74.17
61014;BME280;46899;47.542;19.082;2022-09-14T16:24:21;99508.56;;;22.65;74.67
61014;BME280;46899;47.542;19.082;2022-09-14T16:27:24;99502.00;;;22.59;76.94
61014;BME280;46899;47.542;19.082;2022-09-14T16:30:26;99500.63;;;22.37;78.27
61014;BME280;46899;47.542;19.082;2022-09-14T16:33:29;99500.84;;;22.17;79.81
61014;BME280;46899;47.542;19.082;2022-09-14T16:36:32;99505.91;;;22.10;78.56
61014;BME280;46899;47.542;19.082;2022-09-14T16:39:35;99518.25;;;22.02;79.68
61014;BME280;46899;47.542;19.082;2022-09-14T16:42:38;99501.00;;;21.88;80.21
61014;BME280;46899;47.542;19.082;2022-09-14T16:45:40;99498.25;;;21.70;82.03
61014;BME280;46899;47.542;19.082;2022-09-14T16:48:44;99498.56;;;21.58;83.13
61014;BME280;46899;47.542;19.082;2022-09-14T16:51:47;99494.41;;;21.46;83.60
61014;BME280;46899;47.542;19.082;2022-09-14T16:54:49;99475.72;;;21.57;84.48
61014;BME280;46899;47.542;19.082;2022-09-14T16:57:57;99480.81;;;21.31;85.59
61014;BME280;46899;47.542;19.082;2022-09-14T17:01:03;99487.50;;;21.26;86.43
61014;BME280;46899;47.542;19.082;2022-09-14T17:04:14;99481.13;;;21.09;87.35
61014;BME280;46899;47.542;19.082;2022-09-14T17:07:17;99472.19;;;20.91;88.18
61014;BME280;46899;47.542;19.082;2022-09-14T17:10:20;99478.59;;;20.79;89.59
61014;BME280;46899;47.542;19.082;2022-09-14T17:13:23;99479.03;;;20.65;90.10
61014;BME280;46899;47.542;19.082;2022-09-14T17:16:26;99476.63;;;20.52;91.39
61014;BME280;46899;47.542;19.082;2022-09-14T17:19:29;99461.34;;;20.46;91.74
61014;BME280;46899;47.542;19.082;2022-09-14T17:22:31;99461.31;;;20.36;92.49
61014;BME280;46899;47.542;19.082;2022-09-14T17:25:34;99458.81;;;20.25;93.61
61014;BME280;46899;47.542;19.082;2022-09-14T17:28:37;99451.84;;;20.24;94.01
61014;BME280;46899;47.542;19.082;2022-09-14T17:31:40;99449.00;;;20.16;94.33
61014;BME280;46899;47.542;19.082;2022-09-14T17:34:43;99446.22;;;20.08;95.93
61014;BME280;46899;47.542;19.082;2022-09-14T17:37:45;99444.84;;;20.04;95.87